createdAt,value
2019-04-16T00:05:08.430Z,10.97
2019-04-16T00:10:39.326Z,11.60
2019-04-16T00:15:44.517Z,11.20
2019-04-16T00:20:59.983Z,12.20
2019-04-16T00:26:07.314Z,11.70
2019-04-16T00:31:12.470Z,12.20
2019-04-16T00:36:18.872Z,12.07
2019-04-16T00:41:24.310Z,13.07
2019-04-16T00:46:29.561Z,13.77
2019-04-16T00:51:34.770Z,11.00
2019-04-16T00:56:40.321Z,12.33
2019-04-16T01:01:45.543Z,13.97
2019-04-16T01:06:50.723Z,14.00
2019-04-16T01:11:55.886Z,12.73
2019-04-16T01:17:05.099Z,11.03
2019-04-16T01:22:08.986Z,13.00
2019-04-16T01:27:14.152Z,15.37
2019-04-16T01:32:44.245Z,13.73
2019-04-16T01:38:07.282Z,13.00
2019-04-16T01:43:12.680Z,11.30
2019-04-16T01:48:18.833Z,12.53
2019-04-16T01:53:23.980Z,13.57
2019-04-16T01:58:33.580Z,13.60
2019-04-16T02:03:35.916Z,12.97
2019-04-16T02:08:41.178Z,12.77
2019-04-16T02:13:46.973Z,14.00
2019-04-16T02:18:52.182Z,13.97
2019-04-16T02:23:58.325Z,12.03
2019-04-16T02:29:03.472Z,14.20
2019-04-16T02:34:08.956Z,14.57
2019-04-16T02:39:14.407Z,15.53
2019-04-16T02:44:19.603Z,12.73
2019-04-16T02:49:25.371Z,17.50
2019-04-16T02:55:07.798Z,13.63
2019-04-16T03:00:20.874Z,14.57
2019-04-16T03:05:32.208Z,14.60
2019-04-16T03:10:37.613Z,16.73
2019-04-16T03:16:06.301Z,14.27
2019-04-16T03:21:10.555Z,12.53
2019-04-16T03:26:17.870Z,14.87
2019-04-16T03:31:23.715Z,15.57
2019-04-16T03:36:30.217Z,12.77
2019-04-16T03:41:35.527Z,14.07
2019-04-16T03:46:46.014Z,13.17
2019-04-16T03:51:48.668Z,15.77
2019-04-16T03:56:54.165Z,14.67
2019-04-16T04:01:59.716Z,14.20
2019-04-16T04:07:05.514Z,15.67
2019-04-16T04:12:13.024Z,13.80
2019-04-16T04:17:17.973Z,17.43
2019-04-16T04:22:25.799Z,15.83
2019-04-16T04:27:30.652Z,13.27
2019-04-16T04:32:36.278Z,14.43
2019-04-16T04:37:42.288Z,13.83
2019-04-16T04:42:47.492Z,16.67
2019-04-16T04:47:53.178Z,14.90
2019-04-16T04:52:58.354Z,14.63
2019-04-16T04:58:03.575Z,16.90
2019-04-16T05:03:12.401Z,16.73
2019-04-16T05:08:18.796Z,16.03
2019-04-16T05:13:25.255Z,13.87
2019-04-16T05:18:31.044Z,14.67
2019-04-16T05:23:37.712Z,16.90
2019-04-16T05:28:45.440Z,18.70
2019-04-16T05:33:50.828Z,15.50
2019-04-16T05:38:56.404Z,18.23
2019-04-16T05:44:02.485Z,17.20
2019-04-16T05:49:09.288Z,17.07
2019-04-16T05:54:31.352Z,19.43
2019-04-16T05:59:36.604Z,17.63
2019-04-16T06:04:41.773Z,18.13
2019-04-16T06:09:46.947Z,21.83
2019-04-16T06:15:00.986Z,24.93
2019-04-16T06:20:21.744Z,21.20
2019-04-16T06:25:34.354Z,20.63
2019-04-16T06:30:47.136Z,24.97
2019-04-16T06:36:10.456Z,19.13
2019-04-16T06:41:41.467Z,20.93
2019-04-16T06:47:10.624Z,18.97
2019-04-16T06:52:42.867Z,22.20
2019-04-16T06:58:27.917Z,19.30
2019-04-16T07:03:58.287Z,17.03
2019-04-16T07:09:26.462Z,19.20
2019-04-16T07:14:32.059Z,21.13
2019-04-16T07:19:39.452Z,18.27
2019-04-16T07:24:44.438Z,17.60
2019-04-16T07:29:53.634Z,18.33
2019-04-16T07:35:27.278Z,20.00
2019-04-16T07:41:01.149Z,17.07
2019-04-16T07:46:24.082Z,18.13
2019-04-16T07:51:53.992Z,16.40
2019-04-16T07:56:59.084Z,17.07
2019-04-16T08:02:04.570Z,20.20
2019-04-16T08:07:11.770Z,15.87
2019-04-16T08:12:29.812Z,17.50
2019-04-16T08:17:24.176Z,18.45
2019-04-16T08:22:29.509Z,14.40
2019-04-16T08:27:34.803Z,15.25
2019-04-16T08:32:39.982Z,15.45
2019-04-16T08:37:49.268Z,16.95
2019-04-16T08:42:57.004Z,18.12
2019-04-16T08:47:59.044Z,16.27
2019-04-16T08:53:04.220Z,16.30
2019-04-16T08:58:12.668Z,16.07
2019-04-16T09:03:17.414Z,14.33
2019-04-16T09:08:34.529Z,14.80
2019-04-16T09:13:48.217Z,13.88
2019-04-16T09:19:04.289Z,14.55
2019-04-16T09:24:27.422Z,16.95
2019-04-16T09:29:51.938Z,16.32
2019-04-16T09:35:19.881Z,16.40
2019-04-16T09:40:40.197Z,16.55
2019-04-16T09:45:45.525Z,16.35
2019-04-16T09:50:50.820Z,14.45
2019-04-16T09:55:56.092Z,16.40
2019-04-16T10:01:07.222Z,14.68
2019-04-16T10:06:12.497Z,15.50
2019-04-16T10:11:18.988Z,17.70
2019-04-16T10:16:26.385Z,15.28
2019-04-16T10:21:31.635Z,15.00
2019-04-16T10:26:36.952Z,18.60
2019-04-16T10:31:42.384Z,15.68
2019-04-16T10:36:47.985Z,16.85
2019-04-16T10:42:04.349Z,14.75
2019-04-16T10:47:31.548Z,15.85
2019-04-16T10:53:07.840Z,14.85
2019-04-16T10:58:32.071Z,17.05
2019-04-16T11:03:48.371Z,15.23
2019-04-16T11:08:53.887Z,18.67
2019-04-16T11:14:00.553Z,17.37
2019-04-16T11:19:06.183Z,15.63
2019-04-16T11:24:11.589Z,17.40
2019-04-16T11:29:17.456Z,18.48
2019-04-16T11:34:23.414Z,17.85
2019-04-16T11:39:28.718Z,17.98
2019-04-16T11:44:34.084Z,18.35
2019-04-16T11:49:40.783Z,17.12
2019-04-16T11:54:47.015Z,22.35
2019-04-16T12:00:06.060Z,17.42
2019-04-16T12:05:09.436Z,19.80
2019-04-16T12:10:26.417Z,17.48
2019-04-16T12:15:49.281Z,17.75
2019-04-16T12:20:58.921Z,16.93
2019-04-16T12:26:29.970Z,21.10
2019-04-16T12:32:09.416Z,16.42
2019-04-16T12:37:40.356Z,16.62
2019-04-16T12:42:56.257Z,18.75
2019-04-16T12:48:22.836Z,16.30
2019-04-16T12:53:56.084Z,17.20
2019-04-16T12:59:14.433Z,18.95
2019-04-16T13:04:45.709Z,19.98
2019-04-16T13:10:10.048Z,15.25
2019-04-16T13:15:37.805Z,18.15
2019-04-16T13:21:03.831Z,15.45
2019-04-16T13:26:18.656Z,16.48
2019-04-16T13:31:24.258Z,18.05
2019-04-16T13:36:29.547Z,17.67
2019-04-16T13:41:35.195Z,17.10
2019-04-16T13:46:40.496Z,17.17
2019-04-16T13:51:47.801Z,14.50
2019-04-16T13:57:09.582Z,15.03
2019-04-16T14:02:32.739Z,15.58
2019-04-16T14:07:39.080Z,15.70
2019-04-16T14:12:44.351Z,17.32
2019-04-16T14:17:52.739Z,18.25
2019-04-16T14:22:57.771Z,20.05
2019-04-16T14:28:03.727Z,18.92
2019-04-16T14:33:10.910Z,16.27
2019-04-16T14:38:19.489Z,16.32
2019-04-16T14:43:30.231Z,17.23
2019-04-16T14:48:39.067Z,16.57
2019-04-16T14:53:51.850Z,16.52
2019-04-16T14:59:33.568Z,16.82
2019-04-16T15:04:36.053Z,16.70
2019-04-16T15:09:45.922Z,16.97
2019-04-16T15:15:01.706Z,15.72
2019-04-16T15:20:20.145Z,17.67
2019-04-16T15:25:36.277Z,16.70
2019-04-16T15:30:51.695Z,16.57
2019-04-16T15:36:00.699Z,16.42
2019-04-16T15:41:22.282Z,19.35
2019-04-16T15:46:45.484Z,15.35
2019-04-16T15:52:09.813Z,16.62
2019-04-16T15:57:34.029Z,15.85
2019-04-16T16:03:01.556Z,17.05
2019-04-16T16:08:35.344Z,14.70
2019-04-16T16:13:37.873Z,15.50
2019-04-16T16:18:43.137Z,20.48
2019-04-16T16:23:48.423Z,16.35
2019-04-16T16:28:54.498Z,13.75
2019-04-16T16:34:00.305Z,17.20
2019-04-16T16:39:07.601Z,17.98
2019-04-16T16:44:14.502Z,23.87
2019-04-16T16:49:20.071Z,20.30
2019-04-16T16:54:26.830Z,16.50
2019-04-16T16:59:37.778Z,17.67
2019-04-16T17:04:46.537Z,17.57
2019-04-16T17:09:52.274Z,15.55
2019-04-16T17:14:57.747Z,18.32
2019-04-16T17:20:04.659Z,15.08
2019-04-16T17:25:12.007Z,16.05
2019-04-16T17:30:17.624Z,15.65
2019-04-16T17:35:22.894Z,18.67
2019-04-16T17:40:46.580Z,21.10
2019-04-16T17:46:02.713Z,15.58
2019-04-16T17:51:27.453Z,17.87
2019-04-16T17:56:54.478Z,19.12
2019-04-16T18:02:20.922Z,16.65
2019-04-16T18:07:58.692Z,17.87
2019-04-16T18:13:17.096Z,16.07
2019-04-16T18:18:36.595Z,19.00
2019-04-16T18:23:51.070Z,16.85
2019-04-16T18:29:05.000Z,19.23
2019-04-16T18:34:40.243Z,15.78
2019-04-16T18:39:52.859Z,17.80
2019-04-16T18:45:15.343Z,13.95
2019-04-16T18:50:28.162Z,13.62
2019-04-16T18:55:34.685Z,14.38
2019-04-16T19:00:44.309Z,17.15
2019-04-16T19:05:50.569Z,16.45
2019-04-16T19:10:55.883Z,17.27
2019-04-16T19:16:01.820Z,15.18
2019-04-16T19:21:07.135Z,13.98
2019-04-16T19:26:12.409Z,17.90
2019-04-16T19:31:22.737Z,15.63
2019-04-16T19:36:27.504Z,13.75
2019-04-16T19:41:32.978Z,15.60
2019-04-16T19:46:38.341Z,13.60
2019-04-16T19:51:44.691Z,13.13
2019-04-16T19:56:51.424Z,15.45
2019-04-16T20:02:00.201Z,14.00
2019-04-16T20:07:04.063Z,13.37
2019-04-16T20:12:09.637Z,16.20
2019-04-16T20:17:14.960Z,15.40
2019-04-16T20:22:20.280Z,14.93
2019-04-16T20:27:25.869Z,19.57
2019-04-16T20:32:34.390Z,14.93
2019-04-16T20:37:39.112Z,17.73
2019-04-16T20:42:44.395Z,19.70
2019-04-16T20:47:50.782Z,15.37
2019-04-16T20:52:56.046Z,19.15
2019-04-16T20:58:01.687Z,17.12
2019-04-16T21:03:21.547Z,17.40
2019-04-16T21:08:17.127Z,15.48
2019-04-16T21:13:22.461Z,18.27
2019-04-16T21:18:28.336Z,19.60
2019-04-16T21:23:34.751Z,15.85
2019-04-16T21:28:50.483Z,18.48
2019-04-16T21:34:33.300Z,16.95
2019-04-16T21:39:47.176Z,19.00
2019-04-16T21:44:52.486Z,18.20
2019-04-16T21:49:58.208Z,18.70
2019-04-16T21:55:05.132Z,17.92
2019-04-16T22:00:21.875Z,16.70
2019-04-16T22:05:29.420Z,16.37
2019-04-16T22:10:35.801Z,17.80
2019-04-16T22:15:41.401Z,24.85
2019-04-16T22:20:47.664Z,17.07
2019-04-16T22:25:57.030Z,20.10
2019-04-16T22:31:01.135Z,17.98
2019-04-16T22:36:06.579Z,18.93
2019-04-16T22:41:30.833Z,19.57
2019-04-16T22:46:49.114Z,21.70
2019-04-16T22:51:55.085Z,19.65
2019-04-16T22:57:05.645Z,20.90
2019-04-16T23:02:20.648Z,21.10
2019-04-16T23:07:25.903Z,20.40
2019-04-16T23:12:32.223Z,18.70
2019-04-16T23:17:38.396Z,20.20
2019-04-16T23:22:46.485Z,20.07
2019-04-16T23:27:50.701Z,17.57
2019-04-16T23:32:59.042Z,17.50
2019-04-16T23:38:03.268Z,19.17
2019-04-16T23:43:39.715Z,17.95
2019-04-16T23:48:53.149Z,19.50
2019-04-16T23:54:12.025Z,22.15
2019-04-16T23:59:35.962Z,20.05
